sensor_id;sensor_type;location;lat;lon;timestamp;pressure;altitude;pressure_sealevel;temperature;humidity
7407;BME280;3745;56.964;24.128;2022-07-18T15:46:02;101527.91;;;20.24;100.00
7407;BME280;3745;56.964;24.128;2022-07-18T15:48:28;101524.03;;;20.52;100.00
7407;BME280;3745;56.964;24.128;2022-07-18T15:50:53;101598.19;;;21.33;100.00
7407;BME280;3745;56.964;24.128;2022-07-18T15:53:19;101607.56;;;21.81;100.00
7407;BME280;3745;56.964;24.128;2022-07-18T15:55:45;101614.75;;;22.48;100.00
7407;BME280;3745;56.964;24.128;2022-07-18T15:58:10;101591.44;;;23.22;100.00
7407;BME280;3745;56.964;24.128;2022-07-18T16:00:36;101505.13;;;23.60;100.00
7407;BME280;3745;56.964;24.128;2022-07-18T16:03:02;101537.53;;;25.07;100.00
7407;BME280;3745;56.964;24.128;2022-07-18T16:05:28;101587.41;;;26.31;100.00
7407;BME280;3745;56.964;24.128;2022-07-18T16:10:22;101603.63;;;26.58;100.00
7407;BME280;3745;56.964;24.128;2022-07-18T16:12:48;101606.88;;;25.25;100.00
7407;BME280;3745;56.964;24.128;2022-07-18T16:15:13;101611.63;;;24.33;100.00
7407;BME280;3745;56.964;24.128;2022-07-18T16:17:39;101615.22;;;23.67;100.00
7407;BME280;3745;56.964;24.128;2022-07-18T16:20:06;101613.56;;;22.98;100.00
7407;BME280;3745;56.964;24.128;2022-07-18T16:22:32;101550.41;;;22.04;100.00
7407;BME280;3745;56.964;24.128;2022-07-18T16:24:58;101620.16;;;22.38;100.00
7407;BME280;3745;56.964;24.128;2022-07-18T16:27:23;101511.97;;;21.52;100.00
7407;BME280;3745;56.964;24.128;2022-07-18T16:29:49;101619.34;;;21.94;100.00
7407;BME280;3745;56.964;24.128;2022-07-18T16:32:14;101623.19;;;21.72;100.00
7407;BME280;3745;56.964;24.128;2022-07-18T16:34:40;101621.94;;;21.50;100.00
7407;BME280;3745;56.964;24.128;2022-07-18T16:37:06;101622.25;;;21.32;100.00
7407;BME280;3745;56.964;24.128;2022-07-18T16:39:32;101625.91;;;21.19;100.00
7407;BME280;3745;56.964;24.128;2022-07-18T16:41:57;101628.81;;;20.97;100.00
7407;BME280;3745;56.964;24.128;2022-07-18T16:44:23;101597.44;;;20.74;100.00
7407;BME280;3745;56.964;24.128;2022-07-18T16:46:50;101628.06;;;20.89;100.00
7407;BME280;3745;56.964;24.128;2022-07-18T16:49:15;101633.41;;;20.77;100.00
7407;BME280;3745;56.964;24.128;2022-07-18T16:51:42;101606.09;;;20.70;100.00
7407;BME280;3745;56.964;24.128;2022-07-18T16:54:07;101631.72;;;20.76;100.00
7407;BME280;3745;56.964;24.128;2022-07-18T16:56:33;101617.41;;;20.59;100.00
7407;BME280;3745;56.964;24.128;2022-07-18T16:58:59;101591.19;;;20.34;100.00
7407;BME280;3745;56.964;24.128;2022-07-18T17:01:26;101626.88;;;20.55;100.00
7407;BME280;3745;56.964;24.128;2022-07-18T17:03:52;101623.59;;;20.47;100.00
7407;BME280;3745;56.964;24.128;2022-07-18T17:06:18;101614.16;;;20.47;100.00
7407;BME280;3745;56.964;24.128;2022-07-18T17:08:44;101617.41;;;20.60;100.00
7407;BME280;3745;56.964;24.128;2022-07-18T17:11:11;101625.13;;;20.60;100.00
7407;BME280;3745;56.964;24.128;2022-07-18T17:13:38;101589.31;;;20.45;100.00
7407;BME280;3745;56.964;24.128;2022-07-18T17:16:04;101600.59;;;20.36;100.00
7407;BME280;3745;56.964;24.128;2022-07-18T17:18:30;101595.72;;;20.14;100.00
7407;BME280;3745;56.964;24.128;2022-07-18T17:20:56;101616.13;;;20.27;100.00
7407;BME280;3745;56.964;24.128;2022-07-18T17:23:25;101515.94;;;19.57;100.00
7407;BME280;3745;56.964;24.128;2022-07-18T17:25:52;101603.31;;;20.26;100.00
7407;BME280;3745;56.964;24.128;2022-07-18T17:28:18;101530.13;;;19.85;100.00
7407;BME280;3745;56.964;24.128;2022-07-18T17:30:44;101624.72;;;20.25;100.00
7407;BME280;3745;56.964;24.128;2022-07-18T17:33:10;101457.31;;;19.18;100.00
7407;BME280;3745;56.964;24.128;2022-07-18T17:35:36;101619.13;;;19.92;100.00
7407;BME280;3745;56.964;24.128;2022-07-18T17:38:01;101623.34;;;19.96;100.00
7407;BME280;3745;56.964;24.128;2022-07-18T17:40:29;101617.50;;;19.85;100.00
7407;BME280;3745;56.964;24.128;2022-07-18T17:42:55;101485.09;;;18.82;100.00
7407;BME280;3745;56.964;24.128;2022-07-18T17:45:21;101589.56;;;19.57;100.00
7407;BME280;3745;56.964;24.128;2022-07-18T17:47:51;101621.03;;;19.75;100.00
7407;BME280;3745;56.964;24.128;2022-07-18T17:50:17;101619.22;;;19.86;100.00
7407;BME280;3745;56.964;24.128;2022-07-18T17:52:43;101583.53;;;19.62;100.00
7407;BME280;3745;56.964;24.128;2022-07-18T17:55:09;101623.53;;;19.83;100.00
7407;BME280;3745;56.964;24.128;2022-07-18T17:57:35;101623.53;;;19.83;100.00
7407;BME280;3745;56.964;24.128;2022-07-18T18:00:06;101605.66;;;19.72;100.00
7407;BME280;3745;56.964;24.128;2022-07-18T18:02:32;101614.22;;;19.74;100.00
7407;BME280;3745;56.964;24.128;2022-07-18T18:04:58;101622.75;;;19.76;100.00
7407;BME280;3745;56.964;24.128;2022-07-18T18:07:23;101624.50;;;19.74;100.00
7407;BME280;3745;56.964;24.128;2022-07-18T18:09:49;101581.91;;;19.52;100.00
7407;BME280;3745;56.964;24.128;2022-07-18T18:12:15;101619.38;;;19.71;100.00
7407;BME280;3745;56.964;24.128;2022-07-18T18:14:40;101576.00;;;19.45;100.00
7407;BME280;3745;56.964;24.128;2022-07-18T18:17:06;101629.63;;;19.74;100.00
7407;BME280;3745;56.964;24.128;2022-07-18T18:19:33;101626.22;;;19.69;100.00
7407;BME280;3745;56.964;24.128;2022-07-18T18:21:59;101614.31;;;19.65;100.00
7407;BME280;3745;56.964;24.128;2022-07-18T18:24:25;101629.78;;;19.59;100.00
7407;BME280;3745;56.964;24.128;2022-07-18T18:26:54;101628.13;;;19.55;100.00
7407;BME280;3745;56.964;24.128;2022-07-18T18:29:20;101640.25;;;19.41;100.00
7407;BME280;3745;56.964;24.128;2022-07-18T18:31:46;101636.78;;;19.39;100.00
7407;BME280;3745;56.964;24.128;2022-07-18T18:34:12;101636.84;;;19.33;100.00
7407;BME280;3745;56.964;24.128;2022-07-18T18:36:38;101612.22;;;19.12;100.00
7407;BME280;3745;56.964;24.128;2022-07-18T18:39:27;101640.34;;;19.23;100.00
7407;BME280;3745;56.964;24.128;2022-07-18T18:41:54;101648.09;;;19.17;100.00
7407;BME280;3745;56.964;24.128;2022-07-18T18:44:20;101640.44;;;19.14;100.00
7407;BME280;3745;56.964;24.128;2022-07-18T18:46:46;101640.50;;;19.05;100.00
7407;BME280;3745;56.964;24.128;2022-07-18T18:49:13;101643.97;;;19.04;100.00
7407;BME280;3745;56.964;24.128;2022-07-18T18:51:46;101558.81;;;18.53;100.00
7407;BME280;3745;56.964;24.128;2022-07-18T18:54:13;101638.91;;;18.94;100.00
7407;BME280;3745;56.964;24.128;2022-07-18T18:56:40;101501.84;;;18.12;100.00
7407;BME280;3745;56.964;24.128;2022-07-18T18:59:08;101641.53;;;18.85;100.00
7407;BME280;3745;56.964;24.128;2022-07-18T19:01:34;101635.56;;;18.80;100.00
7407;BME280;3745;56.964;24.128;2022-07-18T19:04:00;101633.94;;;18.73;100.00
7407;BME280;3745;56.964;24.128;2022-07-18T19:06:26;101600.72;;;18.49;100.00
7407;BME280;3745;56.964;24.128;2022-07-18T19:08:53;101630.56;;;18.62;100.00
7407;BME280;3745;56.964;24.128;2022-07-18T19:11:19;101635.69;;;18.62;100.00
7407;BME280;3745;56.964;24.128;2022-07-18T19:13:45;101642.59;;;18.54;100.00
7407;BME280;3745;56.964;24.128;2022-07-18T19:16:11;101639.16;;;18.52;100.00
7407;BME280;3745;56.964;24.128;2022-07-18T19:18:37;101593.16;;;18.25;100.00
7407;BME280;3745;56.964;24.128;2022-07-18T19:21:02;101639.19;;;18.43;100.00
7407;BME280;3745;56.964;24.128;2022-07-18T19:23:28;101594.91;;;18.17;100.00
7407;BME280;3745;56.964;24.128;2022-07-18T19:25:53;101635.81;;;18.35;100.00
7407;BME280;3745;56.964;24.128;2022-07-18T19:28:19;101638.38;;;18.33;100.00
7407;BME280;3745;56.964;24.128;2022-07-18T19:30:45;101638.41;;;18.32;100.00
7407;BME280;3745;56.964;24.128;2022-07-18T19:33:13;101636.72;;;18.29;100.00
7407;BME280;3745;56.964;24.128;2022-07-18T19:35:38;101637.56;;;18.27;100.00
7407;BME280;3745;56.964;24.128;2022-07-18T19:38:04;101636.72;;;18.29;100.00
7407;BME280;3745;56.964;24.128;2022-07-18T19:40:30;101605.19;;;18.08;100.00
7407;BME280;3745;56.964;24.128;2022-07-18T19:42:55;101639.25;;;18.28;100.00
7407;BME280;3745;56.964;24.128;2022-07-18T19:45:21;101583.06;;;17.95;100.00
7407;BME280;3745;56.964;24.128;2022-07-18T19:47:47;101643.53;;;18.27;100.00
7407;BME280;3745;56.964;24.128;2022-07-18T19:50:13;101623.97;;;18.13;100.00
7407;BME280;3745;56.964;24.128;2022-07-18T19:52:38;101639.28;;;18.25;100.00
7407;BME280;3745;56.964;24.128;2022-07-18T19:55:04;101629.06;;;18.19;100.00
7407;BME280;3745;56.964;24.128;2022-07-18T19:57:30;101641.88;;;18.23;100.00
7407;BME280;3745;56.964;24.128;2022-07-18T19:59:56;101641.03;;;18.17;100.00
7407;BME280;3745;56.964;24.128;2022-07-18T20:02:21;101509.81;;;17.42;100.00
7407;BME280;3745;56.964;24.128;2022-07-18T20:04:47;101643.56;;;18.23;100.00
7407;BME280;3745;56.964;24.128;2022-07-18T20:07:12;101547.31;;;17.70;100.00
7407;BME280;3745;56.964;24.128;2022-07-18T20:09:38;101634.13;;;18.28;100.00
7407;BME280;3745;56.964;24.128;2022-07-18T20:12:04;101601.78;;;18.03;100.00
7407;BME280;3745;56.964;24.128;2022-07-18T20:14:30;101595.00;;;17.96;100.00
7407;BME280;3745;56.964;24.128;2022-07-18T20:16:55;101629.09;;;18.13;100.00
7407;BME280;3745;56.964;24.128;2022-07-18T20:19:21;101641.03;;;18.20;100.00
7407;BME280;3745;56.964;24.128;2022-07-18T20:21:47;101629.09;;;18.13;100.00
7407;BME280;3745;56.964;24.128;2022-07-18T20:24:13;101641.03;;;18.17;100.00
7407;BME280;3745;56.964;24.128;2022-07-18T20:26:39;101615.47;;;18.05;100.00
7407;BME280;3745;56.964;24.128;2022-07-18T20:29:04;101533.69;;;17.53;100.00
7407;BME280;3745;56.964;24.128;2022-07-18T20:31:30;101629.94;;;18.13;100.00
7407;BME280;3745;56.964;24.128;2022-07-18T20:33:56;101605.22;;;18.02;100.00
7407;BME280;3745;56.964;24.128;2022-07-18T20:36:22;101612.06;;;18.00;100.00
7407;BME280;3745;56.964;24.128;2022-07-18T20:38:48;101639.34;;;18.13;100.00
7407;BME280;3745;56.964;24.128;2022-07-18T20:41:13;101499.63;;;17.27;100.00
7407;BME280;3745;56.964;24.128;2022-07-18T20:43:39;101629.09;;;18.13;100.00
7407;BME280;3745;56.964;24.128;2022-07-18T20:46:05;101590.81;;;17.76;100.00
7407;BME280;3745;56.964;24.128;2022-07-18T20:48:31;101612.06;;;17.97;100.00
7407;BME280;3745;56.964;24.128;2022-07-18T20:50:57;101637.66;;;18.03;100.00
7407;BME280;3745;56.964;24.128;2022-07-18T20:53:23;101642.78;;;18.03;100.00
7407;BME280;3745;56.964;24.128;2022-07-18T20:55:48;101641.09;;;17.99;100.00
7407;BME280;3745;56.964;24.128;2022-07-18T20:58:14;101641.09;;;17.99;100.00
7407;BME280;3745;56.964;24.128;2022-07-18T21:00:41;101645.34;;;18.03;100.00
7407;BME280;3745;56.964;24.128;2022-07-18T21:03:06;101646.19;;;18.08;100.00
7407;BME280;3745;56.964;24.128;2022-07-18T21:05:32;101611.28;;;17.84;100.00
7407;BME280;3745;56.964;24.128;2022-07-18T21:07:57;101595.09;;;17.74;100.00
7407;BME280;3745;56.964;24.128;2022-07-18T21:10:23;101644.50;;;17.98;100.00
7407;BME280;3745;56.964;24.128;2022-07-18T21:12:49;101645.38;;;18.01;100.00
7407;BME280;3745;56.964;24.128;2022-07-18T21:15:14;101595.13;;;17.68;100.00
7407;BME280;3745;56.964;24.128;2022-07-18T21:17:46;101617.28;;;17.63;100.00
7407;BME280;3745;56.964;24.128;2022-07-18T21:20:15;101653.09;;;17.81;100.00
7407;BME280;3745;56.964;24.128;2022-07-18T21:22:40;101509.94;;;17.00;100.00
7407;BME280;3745;56.964;24.128;2022-07-18T21:25:07;101635.19;;;17.77;100.00
7407;BME280;3745;56.964;24.128;2022-07-18T21:27:33;101613.03;;;17.70;100.00
7407;BME280;3745;56.964;24.128;2022-07-18T21:30:00;101636.06;;;17.77;100.00
7407;BME280;3745;56.964;24.128;2022-07-18T21:32:27;101639.44;;;17.82;100.00
7407;BME280;3745;56.964;24.128;2022-07-18T21:34:52;101637.72;;;17.87;100.00
7407;BME280;3745;56.964;24.128;2022-07-18T21:37:18;101636.00;;;17.90;100.00
7407;BME280;3745;56.964;24.128;2022-07-18T21:39:44;101598.53;;;17.67;100.00
7407;BME280;3745;56.964;24.128;2022-07-18T21:42:10;101613.84;;;17.79;100.00
7407;BME280;3745;56.964;24.128;2022-07-18T21:44:36;101596.81;;;17.66;100.00
7407;BME280;3745;56.964;24.128;2022-07-18T21:47:02;101636.03;;;17.80;100.00
7407;BME280;3745;56.964;24.128;2022-07-18T21:49:28;101627.50;;;17.78;100.00
7407;BME280;3745;56.964;24.128;2022-07-18T21:51:54;101603.66;;;17.58;100.00
7407;BME280;3745;56.964;24.128;2022-07-18T21:54:21;101630.94;;;17.74;100.00
7407;BME280;3745;56.964;24.128;2022-07-18T21:56:47;101634.31;;;17.82;100.00
7407;BME280;3745;56.964;24.128;2022-07-18T21:59:13;101620.72;;;17.68;100.00
7407;BME280;3745;56.964;24.128;2022-07-18T22:01:39;101613.91;;;17.64;100.00
7407;BME280;3745;56.964;24.128;2022-07-18T22:04:05;101630.91;;;17.90;100.00
7407;BME280;3745;56.964;24.128;2022-07-18T22:06:31;101600.25;;;17.65;100.00
7407;BME280;3745;56.964;24.128;2022-07-18T22:08:56;101606.16;;;17.82;100.00
7407;BME280;3745;56.964;24.128;2022-07-18T22:11:22;101634.31;;;17.85;100.00
7407;BME280;3745;56.964;24.128;2022-07-18T22:14:02;101629.19;;;17.85;100.00
7407;BME280;3745;56.964;24.128;2022-07-18T22:16:28;101634.31;;;17.82;100.00
7407;BME280;3745;56.964;24.128;2022-07-18T22:18:54;101634.34;;;17.79;100.00
7407;BME280;3745;56.964;24.128;2022-07-18T22:21:20;101634.31;;;17.82;100.00
7407;BME280;3745;56.964;24.128;2022-07-18T22:23:47;101632.63;;;17.78;100.00
7407;BME280;3745;56.964;24.128;2022-07-18T22:26:15;101617.28;;;17.72;100.00
7407;BME280;3745;56.964;24.128;2022-07-18T22:28:41;101632.66;;;17.66;100.00
7407;BME280;3745;56.964;24.128;2022-07-18T22:31:07;101642.88;;;17.66;100.00
7407;BME280;3745;56.964;24.128;2022-07-18T22:33:32;101642.91;;;17.57;100.00
7407;BME280;3745;56.964;24.128;2022-07-18T22:35:58;101617.31;;;17.42;100.00
7407;BME280;3745;56.964;24.128;2022-07-18T22:38:23;101641.19;;;17.53;100.00
7407;BME280;3745;56.964;24.128;2022-07-18T22:40:49;101620.75;;;17.44;100.00
7407;BME280;3745;56.964;24.128;2022-07-18T22:43:14;101583.22;;;17.31;100.00
7407;BME280;3745;56.964;24.128;2022-07-18T22:45:40;101637.78;;;17.63;100.00
7407;BME280;3745;56.964;24.128;2022-07-18T22:48:06;101608.78;;;17.43;100.00
7407;BME280;3745;56.964;24.128;2022-07-18T22:50:32;101636.09;;;17.53;100.00
7407;BME280;3745;56.964;24.128;2022-07-18T22:52:58;101603.69;;;17.40;100.00
7407;BME280;3745;56.964;24.128;2022-07-18T22:55:23;101624.13;;;17.46;100.00
7407;BME280;3745;56.964;24.128;2022-07-18T22:57:49;101636.94;;;17.46;100.00
7407;BME280;3745;56.964;24.128;2022-07-18T23:00:15;101637.78;;;17.48;100.00
7407;BME280;3745;56.964;24.128;2022-07-18T23:02:42;101639.50;;;17.46;100.00
7407;BME280;3745;56.964;24.128;2022-07-18T23:05:09;101644.63;;;17.34;100.00
7407;BME280;3745;56.964;24.128;2022-07-18T23:08:09;101646.34;;;17.27;100.00
7407;BME280;3745;56.964;24.128;2022-07-18T23:10:38;101646.31;;;17.35;100.00
7407;BME280;3745;56.964;24.128;2022-07-18T23:13:05;101630.13;;;17.21;100.00
7407;BME280;3745;56.964;24.128;2022-07-18T23:15:32;101617.34;;;17.18;100.00
7407;BME280;3745;56.964;24.128;2022-07-18T23:17:59;101642.06;;;17.37;100.00
7407;BME280;3745;56.964;24.128;2022-07-18T23:20:25;101611.38;;;17.10;100.00
7407;BME280;3745;56.964;24.128;2022-07-18T23:22:51;101651.44;;;17.23;100.00
7407;BME280;3745;56.964;24.128;2022-07-18T23:25:16;101649.75;;;17.31;100.00
7407;BME280;3745;56.964;24.128;2022-07-18T23:27:42;101653.19;;;17.19;100.00
7407;BME280;3745;56.964;24.128;2022-07-18T23:30:11;101651.44;;;17.23;100.00
7407;BME280;3745;56.964;24.128;2022-07-18T23:32:37;101648.03;;;17.18;100.00
7407;BME280;3745;56.964;24.128;2022-07-18T23:35:04;101512.47;;;16.33;100.00
7407;BME280;3745;56.964;24.128;2022-07-18T23:37:31;101648.03;;;17.03;100.00
7407;BME280;3745;56.964;24.128;2022-07-18T23:39:57;101610.50;;;16.74;100.00
7407;BME280;3745;56.964;24.128;2022-07-18T23:42:23;101649.75;;;17.04;100.00
7407;BME280;3745;56.964;24.128;2022-07-18T23:44:50;101630.94;;;16.71;100.00
7407;BME280;3745;56.964;24.128;2022-07-18T23:47:16;101657.41;;;16.86;100.00
7407;BME280;3745;56.964;24.128;2022-07-18T23:49:42;101638.63;;;16.68;100.00
7407;BME280;3745;56.964;24.128;2022-07-18T23:52:07;101589.97;;;16.38;100.00
7407;BME280;3745;56.964;24.128;2022-07-18T23:54:34;101624.13;;;16.64;100.00
7407;BME280;3745;56.964;24.128;2022-07-18T23:57:00;101641.19;;;16.71;100.00
7407;BME280;3745;56.964;24.128;2022-07-18T23:59:25;101666.78;;;16.87;100.00
